createdAt,value
2022-08-26T00:01:31.957Z,22.31
2022-08-26T00:03:59.013Z,22.30
2022-08-26T00:06:26.249Z,22.29
2022-08-26T00:08:53.957Z,22.25
2022-08-26T00:11:26.369Z,22.21
2022-08-26T00:13:57.617Z,22.18
2022-08-26T00:16:26.771Z,22.14
2022-08-26T00:18:54.133Z,22.08
2022-08-26T00:21:20.634Z,22.03
2022-08-26T00:23:47.809Z,21.96
2022-08-26T00:26:14.632Z,21.93
2022-08-26T00:28:41.477Z,21.92
2022-08-26T00:31:11.071Z,21.95
2022-08-26T00:33:38.820Z,21.99
2022-08-26T00:36:06.517Z,22.05
2022-08-26T00:38:33.323Z,22.10
2022-08-26T00:41:00.377Z,22.15
2022-08-26T00:43:26.980Z,22.16
2022-08-26T00:46:04.770Z,22.20
2022-08-26T00:48:33.817Z,22.22
2022-08-26T00:51:11.780Z,22.24
2022-08-26T00:53:43.356Z,22.26
2022-08-26T00:56:17.715Z,22.26
2022-08-26T00:58:45.502Z,22.24
2022-08-26T01:01:12.163Z,22.21
2022-08-26T01:03:40.503Z,22.19
2022-08-26T01:06:11.479Z,22.14
2022-08-26T01:08:40.379Z,22.14
2022-08-26T01:11:08.074Z,22.13
2022-08-26T01:13:36.894Z,22.11
2022-08-26T01:16:06.175Z,22.09
2022-08-26T01:18:33.528Z,22.07
2022-08-26T01:21:06.257Z,22.01
2022-08-26T01:23:40.960Z,21.99
2022-08-26T01:26:20.054Z,21.93
2022-08-26T01:28:51.594Z,21.89
2022-08-26T01:31:22.250Z,21.88
2022-08-26T01:34:21.109Z,21.82
2022-08-26T01:36:51.661Z,21.76
2022-08-26T01:39:18.603Z,21.71
2022-08-26T01:41:46.344Z,21.65
2022-08-26T01:44:21.991Z,21.58
2022-08-26T01:46:52.215Z,21.56
2022-08-26T01:49:22.392Z,21.51
2022-08-26T01:51:51.407Z,21.49
2022-08-26T01:54:20.481Z,21.48
2022-08-26T01:56:49.731Z,21.48
2022-08-26T01:59:18.480Z,21.47
2022-08-26T02:01:47.672Z,21.48
2022-08-26T02:04:46.562Z,21.43
2022-08-26T02:07:14.200Z,21.40
2022-08-26T02:09:41.760Z,21.39
2022-08-26T02:12:10.617Z,21.38
2022-08-26T02:14:43.827Z,21.35
2022-08-26T02:17:11.295Z,21.30
2022-08-26T02:19:41.679Z,21.27
2022-08-26T02:22:14.925Z,21.24
2022-08-26T02:24:59.292Z,21.18
2022-08-26T02:27:32.820Z,21.15
2022-08-26T02:30:14.120Z,21.14
2022-08-26T02:32:44.045Z,21.11
2022-08-26T02:35:12.861Z,21.11
2022-08-26T02:37:39.503Z,21.10
2022-08-26T02:40:10.687Z,21.10
2022-08-26T02:42:37.666Z,21.09
2022-08-26T02:45:05.433Z,21.11
2022-08-26T02:47:34.371Z,21.12
2022-08-26T02:50:01.781Z,21.14
2022-08-26T02:52:28.311Z,21.18
2022-08-26T02:54:54.927Z,21.20
2022-08-26T02:57:22.206Z,21.18
2022-08-26T02:59:49.338Z,21.25
2022-08-26T03:02:16.768Z,21.29
2022-08-26T03:04:57.377Z,21.33
2022-08-26T03:07:27.308Z,21.41
2022-08-26T03:09:53.855Z,21.45
2022-08-26T03:12:20.400Z,21.51
2022-08-26T03:14:47.934Z,21.58
2022-08-26T03:17:14.479Z,21.63
2022-08-26T03:19:40.928Z,21.71
2022-08-26T03:22:07.797Z,21.79
2022-08-26T03:24:34.407Z,21.87
2022-08-26T03:27:01.960Z,21.92
2022-08-26T03:29:51.763Z,21.95
2022-08-26T03:32:20.661Z,21.97
2022-08-26T03:34:47.093Z,22.02
2022-08-26T03:37:13.524Z,22.05
2022-08-26T03:39:40.057Z,22.05
2022-08-26T03:42:07.314Z,22.08
2022-08-26T03:44:34.061Z,22.09
2022-08-26T03:47:00.591Z,22.14
2022-08-26T03:49:28.831Z,22.19
2022-08-26T03:51:55.493Z,22.23
2022-08-26T03:54:21.926Z,22.29
2022-08-26T03:56:48.355Z,22.32
2022-08-26T03:59:14.834Z,22.36
2022-08-26T04:01:42.075Z,22.37
2022-08-26T04:04:08.616Z,22.40
2022-08-26T04:06:38.425Z,22.40
2022-08-26T04:09:08.511Z,22.42
2022-08-26T04:11:38.245Z,22.47
2022-08-26T04:14:09.512Z,22.52
2022-08-26T04:16:36.523Z,22.53
2022-08-26T04:19:03.306Z,22.56
2022-08-26T04:21:29.801Z,22.57
2022-08-26T04:23:56.273Z,22.59
2022-08-26T04:26:25.354Z,22.55
2022-08-26T04:28:55.285Z,22.57
2022-08-26T04:31:22.249Z,22.53
2022-08-26T04:33:50.206Z,22.58
2022-08-26T04:36:17.653Z,22.57
2022-08-26T04:38:47.293Z,22.58
2022-08-26T04:41:15.678Z,22.58
2022-08-26T04:43:45.465Z,22.58
2022-08-26T04:46:13.920Z,22.57
2022-08-26T04:48:41.108Z,22.57
2022-08-26T04:51:09.694Z,22.60
2022-08-26T04:53:37.601Z,22.58
2022-08-26T04:56:04.880Z,22.60
2022-08-26T04:58:31.848Z,22.60
2022-08-26T05:00:58.533Z,22.60
2022-08-26T05:03:27.353Z,22.62
2022-08-26T05:05:57.968Z,22.64
2022-08-26T05:08:24.480Z,22.70
2022-08-26T05:10:57.113Z,22.77
2022-08-26T05:13:28.914Z,22.85
2022-08-26T05:15:55.751Z,22.91
2022-08-26T05:18:29.945Z,22.93
2022-08-26T05:20:57.390Z,22.99
2022-08-26T05:23:24.648Z,23.02
2022-08-26T05:25:58.364Z,23.06
2022-08-26T05:28:26.938Z,23.10
2022-08-26T05:30:55.486Z,23.12
2022-08-26T05:33:22.406Z,23.12
2022-08-26T05:35:49.171Z,23.14
2022-08-26T05:38:18.677Z,23.16
2022-08-26T05:40:49.053Z,23.20
2022-08-26T05:43:20.164Z,23.19
2022-08-26T05:45:50.273Z,23.22
2022-08-26T05:48:22.777Z,23.20
2022-08-26T05:50:54.197Z,23.20
2022-08-26T05:53:22.192Z,23.19
2022-08-26T05:55:53.131Z,23.18
2022-08-26T05:58:21.873Z,23.18
2022-08-26T06:01:19.535Z,23.20
2022-08-26T06:03:51.696Z,23.21
2022-08-26T06:06:27.603Z,23.24
2022-08-26T06:08:57.883Z,23.27
2022-08-26T06:11:25.456Z,23.29
2022-08-26T06:13:53.574Z,23.33
2022-08-26T06:16:23.310Z,23.32
2022-08-26T06:18:52.628Z,23.33
2022-08-26T06:21:25.408Z,23.35
2022-08-26T06:24:13.176Z,23.34
2022-08-26T06:26:42.666Z,23.36
2022-08-26T06:29:09.762Z,23.39
2022-08-26T06:31:37.156Z,23.38
2022-08-26T06:34:10.592Z,23.35
2022-08-26T06:36:39.341Z,23.35
2022-08-26T06:39:10.062Z,23.35
2022-08-26T06:41:43.172Z,23.36
2022-08-26T06:44:09.911Z,23.37
2022-08-26T06:46:36.526Z,23.41
2022-08-26T06:49:03.534Z,23.40
2022-08-26T06:51:32.674Z,23.42
2022-08-26T06:54:02.406Z,23.44
2022-08-26T06:56:35.270Z,23.47
2022-08-26T06:59:02.615Z,23.49
2022-08-26T07:01:31.907Z,23.53
2022-08-26T07:04:00.228Z,23.55
2022-08-26T07:06:28.200Z,23.55
2022-08-26T07:09:03.366Z,23.59
2022-08-26T07:11:31.233Z,23.57
2022-08-26T07:13:58.960Z,23.58
2022-08-26T07:16:28.807Z,23.61
2022-08-26T07:18:56.869Z,23.61
2022-08-26T07:21:24.547Z,23.62
2022-08-26T07:23:54.626Z,23.61
2022-08-26T07:26:27.033Z,23.61
2022-08-26T07:28:56.155Z,23.63
2022-08-26T07:31:25.268Z,23.64
2022-08-26T07:33:52.767Z,23.64
2022-08-26T07:36:20.763Z,23.64
2022-08-26T07:38:48.186Z,23.64
2022-08-26T07:41:17.398Z,23.67
2022-08-26T07:43:44.390Z,23.66
2022-08-26T07:46:18.316Z,23.65
2022-08-26T07:48:48.779Z,23.66
2022-08-26T07:51:20.743Z,23.68
2022-08-26T07:53:48.124Z,23.68
2022-08-26T07:56:19.576Z,23.69
2022-08-26T07:58:50.523Z,23.73
2022-08-26T08:01:18.359Z,23.74
2022-08-26T08:03:45.253Z,23.76
2022-08-26T08:06:11.896Z,23.77
2022-08-26T08:08:40.728Z,23.82
2022-08-26T08:11:07.463Z,23.83
2022-08-26T08:13:38.672Z,23.80
2022-08-26T08:16:06.094Z,23.81
2022-08-26T08:18:32.555Z,23.77
2022-08-26T08:21:20.996Z,23.82
2022-08-26T08:23:48.214Z,23.76
2022-08-26T08:26:15.359Z,23.80
2022-08-26T08:28:43.475Z,23.81
2022-08-26T08:31:54.519Z,23.88
2022-08-26T08:34:12.277Z,23.89
2022-08-26T08:36:38.739Z,23.94
2022-08-26T08:39:06.454Z,24.03
2022-08-26T08:41:38.868Z,24.07
2022-08-26T08:44:13.077Z,24.10
2022-08-26T08:46:42.393Z,24.13
2022-08-26T08:49:10.307Z,24.13
2022-08-26T08:51:54.232Z,24.17
2022-08-26T08:54:22.937Z,24.16
2022-08-26T08:56:55.312Z,24.18
2022-08-26T08:59:27.533Z,24.19
2022-08-26T09:02:20.887Z,24.12
2022-08-26T09:05:07.857Z,24.14
2022-08-26T09:07:38.821Z,24.17
2022-08-26T09:10:26.283Z,24.21
2022-08-26T09:12:52.822Z,24.22
2022-08-26T09:15:50.523Z,24.27
2022-08-26T09:18:29.145Z,24.27
2022-08-26T09:20:57.147Z,24.28
2022-08-26T09:23:23.652Z,24.32
2022-08-26T09:25:59.897Z,24.37
2022-08-26T09:28:30.306Z,24.39
2022-08-26T09:31:11.448Z,24.46
2022-08-26T09:33:40.071Z,24.47
2022-08-26T09:36:58.776Z,24.45
2022-08-26T09:39:27.987Z,24.45
2022-08-26T09:42:14.331Z,24.47
2022-08-26T09:44:58.144Z,24.45
2022-08-26T09:47:31.842Z,24.45
2022-08-26T09:50:14.370Z,24.50
2022-08-26T09:52:42.589Z,24.52
2022-08-26T09:55:09.315Z,24.57
2022-08-26T09:57:45.653Z,24.69
2022-08-26T10:00:27.151Z,24.84
2022-08-26T10:02:57.844Z,24.93
2022-08-26T10:06:01.455Z,25.01
2022-08-26T10:08:38.683Z,25.15
2022-08-26T10:11:38.339Z,25.14
2022-08-26T10:14:53.421Z,25.11
2022-08-26T10:17:30.876Z,25.10
2022-08-26T10:20:05.496Z,25.09
2022-08-26T10:23:08.451Z,25.14
2022-08-26T10:25:47.224Z,25.12
2022-08-26T10:28:31.774Z,25.12
2022-08-26T10:31:04.700Z,24.97
2022-08-26T10:33:31.313Z,24.83
2022-08-26T10:36:01.801Z,24.80
2022-08-26T10:38:40.216Z,24.76
2022-08-26T10:41:16.970Z,24.80
2022-08-26T10:43:58.073Z,24.75
2022-08-26T10:46:32.293Z,24.84
2022-08-26T10:49:06.551Z,24.86
2022-08-26T10:51:38.533Z,24.92
2022-08-26T10:54:09.217Z,24.93
2022-08-26T10:56:49.854Z,24.97
2022-08-26T10:59:39.912Z,24.92
2022-08-26T11:02:28.737Z,24.89
2022-08-26T11:04:58.824Z,24.84
2022-08-26T11:07:43.592Z,24.86
2022-08-26T11:10:17.159Z,24.81
2022-08-26T11:12:45.301Z,24.83
2022-08-26T11:15:24.575Z,24.87
2022-08-26T11:17:51.340Z,24.85
2022-08-26T11:20:29.866Z,24.97
2022-08-26T11:23:16.509Z,24.99
2022-08-26T11:25:58.913Z,25.02
2022-08-26T11:28:44.661Z,25.02
2022-08-26T11:31:33.771Z,24.99
2022-08-26T11:34:07.107Z,25.04
2022-08-26T11:36:47.747Z,25.01
2022-08-26T11:39:19.554Z,25.03
2022-08-26T11:41:49.364Z,24.97
2022-08-26T11:44:24.167Z,24.91
2022-08-26T11:47:11.543Z,24.97
2022-08-26T11:49:39.120Z,24.97
2022-08-26T11:52:20.735Z,24.94
2022-08-26T11:55:01.313Z,24.95
2022-08-26T11:57:28.739Z,25.04
2022-08-26T11:59:56.503Z,25.15
2022-08-26T12:02:23.341Z,25.22
2022-08-26T12:04:51.837Z,25.26
2022-08-26T12:07:24.412Z,25.25
2022-08-26T12:09:57.543Z,25.23
2022-08-26T12:12:36.161Z,25.12
2022-08-26T12:15:22.660Z,24.98
2022-08-26T12:17:54.373Z,24.93
2022-08-26T12:20:54.374Z,25.01
2022-08-26T12:23:31.039Z,24.97
2022-08-26T12:26:10.471Z,24.86
2022-08-26T12:28:45.801Z,24.84
2022-08-26T12:31:20.929Z,24.90
2022-08-26T12:33:49.485Z,24.85
2022-08-26T12:36:31.489Z,24.92
2022-08-26T12:39:07.199Z,25.04
2022-08-26T12:41:42.138Z,25.16
2022-08-26T12:44:09.039Z,25.26
2022-08-26T12:46:35.506Z,25.57
2022-08-26T12:49:02.977Z,25.70
2022-08-26T12:51:32.372Z,25.68
2022-08-26T12:53:59.634Z,25.68
2022-08-26T12:56:38.750Z,25.70
2022-08-26T12:59:24.981Z,25.74
2022-08-26T13:01:52.662Z,25.68
2022-08-26T13:04:39.840Z,25.61
2022-08-26T13:07:18.433Z,25.70
2022-08-26T13:09:44.838Z,25.67
2022-08-26T13:12:14.198Z,25.57
2022-08-26T13:14:40.803Z,25.48
2022-08-26T13:17:07.372Z,25.49
2022-08-26T13:19:33.776Z,25.36
2022-08-26T13:22:00.683Z,25.31
2022-08-26T13:24:36.909Z,25.34
2022-08-26T13:27:07.429Z,25.32
2022-08-26T13:29:34.233Z,25.40
2022-08-26T13:32:01.546Z,25.46
2022-08-26T13:34:29.722Z,25.47
2022-08-26T13:36:56.528Z,25.53
2022-08-26T13:39:23.900Z,25.60
2022-08-26T13:41:51.429Z,25.66
2022-08-26T13:44:18.937Z,25.77
2022-08-26T13:49:16.992Z,26.08
2022-08-26T13:51:43.444Z,26.30
2022-08-26T13:54:09.932Z,26.63
2022-08-26T13:56:36.664Z,26.96
2022-08-26T13:59:03.988Z,27.13
2022-08-26T14:01:31.714Z,27.28
2022-08-26T14:03:58.739Z,27.31
2022-08-26T14:06:25.552Z,27.18
2022-08-26T14:08:52.061Z,27.23
2022-08-26T14:11:18.897Z,27.21
2022-08-26T14:13:45.438Z,27.31
2022-08-26T14:16:26.775Z,27.41
2022-08-26T14:18:53.953Z,27.43
2022-08-26T14:21:21.260Z,27.26
2022-08-26T14:23:47.885Z,27.18
2022-08-26T14:26:21.433Z,27.01
2022-08-26T14:28:55.208Z,26.77
2022-08-26T14:31:24.424Z,26.61
2022-08-26T14:33:50.956Z,26.50
2022-08-26T14:36:29.440Z,26.37
2022-08-26T14:38:58.294Z,26.20
2022-08-26T14:41:25.392Z,26.01
2022-08-26T14:44:00.023Z,25.85
2022-08-26T14:46:30.279Z,25.80
2022-08-26T14:49:02.128Z,25.71
2022-08-26T14:51:30.112Z,25.62
2022-08-26T14:54:14.630Z,25.55
2022-08-26T14:56:53.975Z,25.45
2022-08-26T14:59:31.966Z,25.36
2022-08-26T15:01:59.165Z,25.33
2022-08-26T15:04:26.070Z,25.30
2022-08-26T15:06:57.300Z,25.26
2022-08-26T15:09:23.825Z,25.22
2022-08-26T15:11:50.767Z,25.18
2022-08-26T15:14:19.499Z,25.18
2022-08-26T15:16:55.790Z,25.15
2022-08-26T15:19:24.178Z,25.15
2022-08-26T15:21:51.434Z,25.11
2022-08-26T15:24:21.201Z,25.11
2022-08-26T15:26:48.666Z,25.09
2022-08-26T15:29:15.224Z,25.03
2022-08-26T15:31:42.092Z,25.01
2022-08-26T15:34:14.624Z,25.02
2022-08-26T15:36:44.790Z,24.99
2022-08-26T15:39:11.882Z,24.99
2022-08-26T15:41:38.380Z,24.90
2022-08-26T15:44:06.762Z,24.87
2022-08-26T15:46:34.355Z,24.73
2022-08-26T15:49:02.499Z,24.70
2022-08-26T15:51:31.910Z,24.60
2022-08-26T15:53:59.240Z,24.62
2022-08-26T15:56:27.767Z,24.65
2022-08-26T15:58:56.063Z,24.66
2022-08-26T16:01:27.456Z,24.65
2022-08-26T16:03:55.036Z,24.66
2022-08-26T16:06:24.818Z,24.67
2022-08-26T16:08:51.692Z,24.73
2022-08-26T16:11:21.331Z,24.76
2022-08-26T16:13:47.901Z,24.77
2022-08-26T16:16:15.084Z,24.78
2022-08-26T16:18:42.247Z,24.78
2022-08-26T16:21:13.579Z,24.76
2022-08-26T16:23:40.518Z,24.67
2022-08-26T16:26:14.249Z,24.66
2022-08-26T16:28:40.706Z,24.62
2022-08-26T16:31:07.285Z,24.60
2022-08-26T16:33:33.829Z,24.62
2022-08-26T16:36:00.303Z,24.64
2022-08-26T16:38:26.770Z,24.60
2022-08-26T16:40:53.243Z,24.64
2022-08-26T16:43:19.691Z,24.66
2022-08-26T16:45:46.190Z,24.64
2022-08-26T16:48:12.636Z,24.62
2022-08-26T16:50:40.703Z,24.57
2022-08-26T16:53:08.031Z,24.58
2022-08-26T16:55:35.841Z,24.57
2022-08-26T16:58:03.051Z,24.54
2022-08-26T17:00:32.279Z,24.58
2022-08-26T17:03:00.754Z,24.57
2022-08-26T17:05:28.461Z,24.57
2022-08-26T17:07:56.712Z,24.55
2022-08-26T17:10:24.752Z,24.53
2022-08-26T17:12:51.502Z,24.49
2022-08-26T17:15:18.463Z,24.49
2022-08-26T17:17:45.023Z,24.45
2022-08-26T17:20:15.588Z,24.46
2022-08-26T17:22:45.717Z,24.43
2022-08-26T17:25:24.413Z,24.40
2022-08-26T17:27:50.914Z,24.33
2022-08-26T17:30:17.966Z,24.28
2022-08-26T17:32:44.983Z,24.23
2022-08-26T17:35:13.261Z,24.19
2022-08-26T17:37:40.055Z,24.16
2022-08-26T17:40:11.894Z,24.14
2022-08-26T17:42:39.049Z,24.12
2022-08-26T17:45:06.510Z,24.09
2022-08-26T17:47:33.926Z,24.06
2022-08-26T17:50:01.323Z,24.00
2022-08-26T17:52:28.697Z,23.94
2022-08-26T17:54:58.151Z,23.89
2022-08-26T17:57:25.247Z,23.86
2022-08-26T17:59:52.762Z,23.80
2022-08-26T18:02:21.104Z,23.72
2022-08-26T18:04:48.142Z,23.68
2022-08-26T18:07:15.698Z,23.64
2022-08-26T18:09:42.433Z,23.63
2022-08-26T18:12:10.199Z,23.59
2022-08-26T18:14:36.905Z,23.57
2022-08-26T18:17:03.684Z,23.52
2022-08-26T18:19:31.340Z,23.48
2022-08-26T18:21:58.300Z,23.45
2022-08-26T18:24:24.799Z,23.43
2022-08-26T18:26:51.232Z,23.40
2022-08-26T18:29:19.531Z,23.37
2022-08-26T18:31:46.658Z,23.35
2022-08-26T18:34:15.358Z,23.29
2022-08-26T18:36:42.998Z,23.26
2022-08-26T18:39:10.985Z,23.22
2022-08-26T18:41:46.646Z,23.18
2022-08-26T18:44:14.872Z,23.11
2022-08-26T18:46:41.935Z,23.06
2022-08-26T18:49:09.637Z,23.02
2022-08-26T18:51:37.812Z,22.99
2022-08-26T18:54:06.214Z,22.95
2022-08-26T18:56:35.440Z,22.92
2022-08-26T18:59:03.037Z,22.86
2022-08-26T19:01:30.743Z,22.86
2022-08-26T19:03:59.390Z,22.80
2022-08-26T19:06:27.251Z,22.77
2022-08-26T19:08:53.970Z,22.75
2022-08-26T19:11:31.475Z,22.73
2022-08-26T19:13:59.897Z,22.72
2022-08-26T19:16:27.011Z,22.71
2022-08-26T19:18:54.798Z,22.70
2022-08-26T19:21:22.813Z,22.70
2022-08-26T19:23:50.143Z,22.70
2022-08-26T19:26:17.240Z,22.70
2022-08-26T19:28:43.703Z,22.69
2022-08-26T19:31:11.715Z,22.69
2022-08-26T19:33:43.070Z,22.69
2022-08-26T19:36:15.609Z,22.68
2022-08-26T19:38:42.874Z,22.65
2022-08-26T19:41:18.152Z,22.65
2022-08-26T19:43:46.240Z,22.61
2022-08-26T19:46:19.484Z,22.62
2022-08-26T19:48:47.179Z,22.60
2022-08-26T19:51:19.330Z,22.59
2022-08-26T19:53:47.734Z,22.61
2022-08-26T19:56:14.851Z,22.62
2022-08-26T19:58:41.888Z,22.61
2022-08-26T20:01:09.023Z,22.62
2022-08-26T20:03:36.037Z,22.62
2022-08-26T20:06:05.127Z,22.62
2022-08-26T20:08:32.507Z,22.58
2022-08-26T20:11:08.971Z,22.59
2022-08-26T20:13:36.358Z,22.57
2022-08-26T20:16:03.073Z,22.57
2022-08-26T20:18:48.010Z,22.56
2022-08-26T20:21:27.342Z,22.55
2022-08-26T20:23:59.304Z,22.54
2022-08-26T20:26:31.601Z,22.53
2022-08-26T20:28:58.795Z,22.52
2022-08-26T20:31:26.507Z,22.54
2022-08-26T20:33:53.567Z,22.53
2022-08-26T20:36:22.113Z,22.53
2022-08-26T20:38:49.623Z,22.49
2022-08-26T20:41:16.924Z,22.46
2022-08-26T20:43:43.898Z,22.43
2022-08-26T20:46:17.279Z,22.42
2022-08-26T20:48:46.789Z,22.39
2022-08-26T20:51:13.271Z,22.40
2022-08-26T20:53:39.868Z,22.37
2022-08-26T20:56:08.587Z,22.36
2022-08-26T20:58:35.715Z,22.32
2022-08-26T21:01:07.310Z,22.32
2022-08-26T21:03:34.793Z,22.32
2022-08-26T21:06:03.108Z,22.27
2022-08-26T21:08:29.590Z,22.25
2022-08-26T21:10:56.043Z,22.22
2022-08-26T21:13:22.711Z,22.17
2022-08-26T21:15:49.182Z,22.16
2022-08-26T21:18:15.629Z,22.17
2022-08-26T21:20:42.107Z,22.16
2022-08-26T21:23:08.522Z,22.17
2022-08-26T21:25:34.950Z,22.15
2022-08-26T21:28:01.361Z,22.14
2022-08-26T21:30:28.068Z,22.11
2022-08-26T21:32:54.486Z,22.06
2022-08-26T21:35:21.207Z,22.02
2022-08-26T21:37:47.674Z,22.00
2022-08-26T21:40:14.221Z,22.00
2022-08-26T21:42:40.693Z,21.97
2022-08-26T21:45:07.825Z,21.98
2022-08-26T21:47:34.333Z,21.95
2022-08-26T21:50:00.802Z,21.92
2022-08-26T21:52:27.401Z,21.94
2022-08-26T21:55:01.491Z,21.92
2022-08-26T21:57:28.799Z,21.89
2022-08-26T21:59:55.691Z,21.87
2022-08-26T22:02:22.588Z,21.87
2022-08-26T22:04:49.429Z,21.84
2022-08-26T22:07:17.917Z,21.82
2022-08-26T22:09:44.797Z,21.81
2022-08-26T22:12:12.332Z,21.76
2022-08-26T22:14:39.683Z,21.71
2022-08-26T22:17:06.518Z,21.67
2022-08-26T22:19:34.104Z,21.65
2022-08-26T22:22:12.989Z,21.66
2022-08-26T22:24:39.939Z,21.65
2022-08-26T22:27:06.390Z,21.63
2022-08-26T22:29:33.201Z,21.61
2022-08-26T22:31:59.987Z,21.61
2022-08-26T22:34:26.517Z,21.61
2022-08-26T22:36:52.976Z,21.62
2022-08-26T22:39:22.393Z,21.63
2022-08-26T22:41:49.577Z,21.63
2022-08-26T22:44:17.108Z,21.65
2022-08-26T22:46:45.102Z,21.66
2022-08-26T22:49:16.268Z,21.68
2022-08-26T22:51:46.085Z,21.67
2022-08-26T22:54:13.850Z,21.68
2022-08-26T22:56:40.788Z,21.70
2022-08-26T22:59:08.087Z,21.69
2022-08-26T23:01:36.810Z,21.68
2022-08-26T23:04:04.626Z,21.70
2022-08-26T23:06:31.225Z,21.72
2022-08-26T23:08:57.696Z,21.72
2022-08-26T23:11:24.196Z,21.74
2022-08-26T23:13:50.654Z,21.74
2022-08-26T23:16:17.144Z,21.74
2022-08-26T23:18:43.598Z,21.72
2022-08-26T23:21:10.658Z,21.74
2022-08-26T23:23:38.280Z,21.73
2022-08-26T23:26:06.957Z,21.74
2022-08-26T23:28:34.880Z,21.73
2022-08-26T23:31:01.774Z,21.73
2022-08-26T23:33:48.223Z,21.73
2022-08-26T23:36:17.843Z,21.72
2022-08-26T23:38:45.018Z,21.69
2022-08-26T23:41:19.091Z,21.69
2022-08-26T23:43:45.566Z,21.68
2022-08-26T23:46:12.096Z,21.67
2022-08-26T23:48:38.601Z,21.68
2022-08-26T23:51:23.997Z,21.68
2022-08-26T23:53:50.744Z,21.69
2022-08-26T23:56:18.275Z,21.69
2022-08-26T23:58:45.159Z,21.67
